sensor_id;sensor_type;location;lat;lon;timestamp;P1;durP1;ratioP1;P2;durP2;ratioP2
71343;SDS011;59146;43.850;25.948;2024-02-21T00:00:13;56.22;;;31.20;;
71343;SDS011;59146;43.850;25.948;2024-02-21T00:02:39;51.42;;;30.40;;
71343;SDS011;59146;43.850;25.948;2024-02-21T00:05:05;50.60;;;29.17;;
71343;SDS011;59146;43.850;25.948;2024-02-21T00:07:31;55.15;;;31.00;;
71343;SDS011;59146;43.850;25.948;2024-02-21T00:09:56;52.53;;;31.02;;
71343;SDS011;59146;43.850;25.948;2024-02-21T00:12:21;52.42;;;29.70;;
71343;SDS011;59146;43.850;25.948;2024-02-21T00:14:47;55.33;;;28.65;;
71343;SDS011;59146;43.850;25.948;2024-02-21T00:17:12;54.22;;;29.92;;
71343;SDS011;59146;43.850;25.948;2024-02-21T00:19:38;48.95;;;27.58;;
71343;SDS011;59146;43.850;25.948;2024-02-21T00:22:03;52.42;;;27.85;;
71343;SDS011;59146;43.850;25.948;2024-02-21T00:24:29;51.83;;;29.58;;
71343;SDS011;59146;43.850;25.948;2024-02-21T00:26:55;52.10;;;28.40;;
71343;SDS011;59146;43.850;25.948;2024-02-21T00:29:20;55.63;;;28.23;;
71343;SDS011;59146;43.850;25.948;2024-02-21T00:31:47;50.38;;;27.88;;
71343;SDS011;59146;43.850;25.948;2024-02-21T00:34:14;49.67;;;27.88;;
71343;SDS011;59146;43.850;25.948;2024-02-21T00:36:39;48.85;;;27.67;;
71343;SDS011;59146;43.850;25.948;2024-02-21T00:39:05;51.47;;;29.17;;
71343;SDS011;59146;43.850;25.948;2024-02-21T00:41:31;49.25;;;28.20;;
71343;SDS011;59146;43.850;25.948;2024-02-21T00:43:56;53.92;;;30.27;;
71343;SDS011;59146;43.850;25.948;2024-02-21T00:46:22;49.85;;;29.15;;
71343;SDS011;59146;43.850;25.948;2024-02-21T00:48:48;71.78;;;40.53;;
71343;SDS011;59146;43.850;25.948;2024-02-21T00:51:14;49.17;;;29.52;;
71343;SDS011;59146;43.850;25.948;2024-02-21T00:53:40;49.58;;;27.95;;
71343;SDS011;59146;43.850;25.948;2024-02-21T00:56:07;47.65;;;28.27;;
71343;SDS011;59146;43.850;25.948;2024-02-21T00:58:32;50.30;;;28.50;;
71343;SDS011;59146;43.850;25.948;2024-02-21T01:00:57;60.63;;;35.22;;
71343;SDS011;59146;43.850;25.948;2024-02-21T01:03:23;49.25;;;28.98;;
71343;SDS011;59146;43.850;25.948;2024-02-21T01:05:48;48.67;;;27.02;;
71343;SDS011;59146;43.850;25.948;2024-02-21T01:08:14;52.63;;;28.17;;
71343;SDS011;59146;43.850;25.948;2024-02-21T01:10:39;46.25;;;27.52;;
71343;SDS011;59146;43.850;25.948;2024-02-21T01:13:05;57.30;;;28.73;;
71343;SDS011;59146;43.850;25.948;2024-02-21T01:15:31;48.25;;;28.70;;
71343;SDS011;59146;43.850;25.948;2024-02-21T01:17:57;47.67;;;27.85;;
71343;SDS011;59146;43.850;25.948;2024-02-21T01:20:22;46.67;;;27.60;;
71343;SDS011;59146;43.850;25.948;2024-02-21T01:22:48;49.25;;;26.75;;
71343;SDS011;59146;43.850;25.948;2024-02-21T01:25:13;52.95;;;29.23;;
71343;SDS011;59146;43.850;25.948;2024-02-21T01:27:38;50.40;;;27.75;;
71343;SDS011;59146;43.850;25.948;2024-02-21T01:30:04;49.92;;;27.65;;
71343;SDS011;59146;43.850;25.948;2024-02-21T01:32:30;50.97;;;27.85;;
71343;SDS011;59146;43.850;25.948;2024-02-21T01:34:56;50.83;;;28.33;;
71343;SDS011;59146;43.850;25.948;2024-02-21T01:37:21;51.83;;;27.10;;
71343;SDS011;59146;43.850;25.948;2024-02-21T01:39:47;48.58;;;27.10;;
71343;SDS011;59146;43.850;25.948;2024-02-21T01:42:14;48.05;;;27.08;;
71343;SDS011;59146;43.850;25.948;2024-02-21T01:44:39;50.95;;;28.48;;
71343;SDS011;59146;43.850;25.948;2024-02-21T01:47:05;47.13;;;26.80;;
71343;SDS011;59146;43.850;25.948;2024-02-21T01:49:31;49.65;;;25.65;;
71343;SDS011;59146;43.850;25.948;2024-02-21T01:51:56;47.67;;;26.55;;
71343;SDS011;59146;43.850;25.948;2024-02-21T01:54:22;53.47;;;27.38;;
71343;SDS011;59146;43.850;25.948;2024-02-21T01:56:47;46.95;;;27.75;;
71343;SDS011;59146;43.850;25.948;2024-02-21T01:59:13;50.15;;;26.55;;
71343;SDS011;59146;43.850;25.948;2024-02-21T02:01:41;49.80;;;28.88;;
71343;SDS011;59146;43.850;25.948;2024-02-21T02:04:07;51.75;;;28.17;;
71343;SDS011;59146;43.850;25.948;2024-02-21T02:06:34;50.53;;;27.60;;
71343;SDS011;59146;43.850;25.948;2024-02-21T02:08:59;51.20;;;27.52;;
71343;SDS011;59146;43.850;25.948;2024-02-21T02:11:25;47.38;;;25.65;;
71343;SDS011;59146;43.850;25.948;2024-02-21T02:13:51;48.20;;;26.38;;
71343;SDS011;59146;43.850;25.948;2024-02-21T02:16:16;50.53;;;26.95;;
71343;SDS011;59146;43.850;25.948;2024-02-21T02:18:42;50.90;;;25.88;;
71343;SDS011;59146;43.850;25.948;2024-02-21T02:21:10;43.40;;;25.48;;
71343;SDS011;59146;43.850;25.948;2024-02-21T02:23:47;44.17;;;24.77;;
71343;SDS011;59146;43.850;25.948;2024-02-21T02:26:12;51.22;;;25.75;;
71343;SDS011;59146;43.850;25.948;2024-02-21T02:28:37;53.67;;;27.23;;
71343;SDS011;59146;43.850;25.948;2024-02-21T02:31:03;45.45;;;26.27;;
71343;SDS011;59146;43.850;25.948;2024-02-21T02:33:28;48.80;;;26.67;;
71343;SDS011;59146;43.850;25.948;2024-02-21T02:35:54;50.47;;;26.00;;
71343;SDS011;59146;43.850;25.948;2024-02-21T02:38:19;46.15;;;24.95;;
71343;SDS011;59146;43.850;25.948;2024-02-21T02:40:45;51.65;;;26.20;;
71343;SDS011;59146;43.850;25.948;2024-02-21T02:43:10;47.83;;;26.40;;
71343;SDS011;59146;43.850;25.948;2024-02-21T02:45:36;49.67;;;26.52;;
71343;SDS011;59146;43.850;25.948;2024-02-21T02:48:01;50.15;;;27.17;;
71343;SDS011;59146;43.850;25.948;2024-02-21T02:50:27;50.15;;;26.67;;
71343;SDS011;59146;43.850;25.948;2024-02-21T02:52:53;48.28;;;26.98;;
71343;SDS011;59146;43.850;25.948;2024-02-21T02:55:19;53.88;;;26.20;;
71343;SDS011;59146;43.850;25.948;2024-02-21T02:57:45;50.65;;;27.27;;
71343;SDS011;59146;43.850;25.948;2024-02-21T03:00:11;48.45;;;26.67;;
71343;SDS011;59146;43.850;25.948;2024-02-21T03:02:42;46.60;;;26.02;;
71343;SDS011;59146;43.850;25.948;2024-02-21T03:07:38;51.42;;;28.58;;
71343;SDS011;59146;43.850;25.948;2024-02-21T03:10:04;49.50;;;26.98;;
71343;SDS011;59146;43.850;25.948;2024-02-21T03:12:29;46.60;;;25.92;;
71343;SDS011;59146;43.850;25.948;2024-02-21T03:14:55;51.88;;;26.83;;
71343;SDS011;59146;43.850;25.948;2024-02-21T03:17:21;48.88;;;26.45;;
71343;SDS011;59146;43.850;25.948;2024-02-21T03:19:46;48.15;;;26.30;;
71343;SDS011;59146;43.850;25.948;2024-02-21T03:22:13;51.97;;;27.00;;
71343;SDS011;59146;43.850;25.948;2024-02-21T03:24:39;45.63;;;26.70;;
71343;SDS011;59146;43.850;25.948;2024-02-21T03:27:04;45.35;;;25.73;;
71343;SDS011;59146;43.850;25.948;2024-02-21T03:29:30;52.05;;;27.95;;
71343;SDS011;59146;43.850;25.948;2024-02-21T03:31:55;47.35;;;26.38;;
71343;SDS011;59146;43.850;25.948;2024-02-21T03:34:20;49.97;;;27.02;;
71343;SDS011;59146;43.850;25.948;2024-02-21T03:36:46;44.45;;;25.58;;
71343;SDS011;59146;43.850;25.948;2024-02-21T03:39:11;49.53;;;25.65;;
71343;SDS011;59146;43.850;25.948;2024-02-21T03:41:37;47.72;;;27.80;;
71343;SDS011;59146;43.850;25.948;2024-02-21T03:44:02;50.45;;;27.30;;
71343;SDS011;59146;43.850;25.948;2024-02-21T03:46:27;48.33;;;26.88;;
71343;SDS011;59146;43.850;25.948;2024-02-21T03:48:53;50.80;;;28.42;;
71343;SDS011;59146;43.850;25.948;2024-02-21T03:51:18;49.35;;;26.55;;
71343;SDS011;59146;43.850;25.948;2024-02-21T03:53:44;48.10;;;26.73;;
71343;SDS011;59146;43.850;25.948;2024-02-21T03:56:09;46.08;;;26.58;;
71343;SDS011;59146;43.850;25.948;2024-02-21T03:58:35;51.33;;;27.50;;
71343;SDS011;59146;43.850;25.948;2024-02-21T04:01:01;45.80;;;26.58;;
71343;SDS011;59146;43.850;25.948;2024-02-21T04:03:27;47.67;;;26.38;;
71343;SDS011;59146;43.850;25.948;2024-02-21T04:05:52;49.17;;;28.00;;
71343;SDS011;59146;43.850;25.948;2024-02-21T04:08:18;51.50;;;27.63;;
71343;SDS011;59146;43.850;25.948;2024-02-21T04:10:43;50.22;;;27.40;;
71343;SDS011;59146;43.850;25.948;2024-02-21T04:13:09;45.38;;;25.65;;
71343;SDS011;59146;43.850;25.948;2024-02-21T04:15:34;48.67;;;27.15;;
71343;SDS011;59146;43.850;25.948;2024-02-21T04:18:00;46.75;;;26.10;;
71343;SDS011;59146;43.850;25.948;2024-02-21T04:20:25;50.03;;;27.50;;
71343;SDS011;59146;43.850;25.948;2024-02-21T04:22:51;48.97;;;27.52;;
71343;SDS011;59146;43.850;25.948;2024-02-21T04:25:17;49.85;;;28.38;;
71343;SDS011;59146;43.850;25.948;2024-02-21T04:27:42;48.75;;;27.75;;
71343;SDS011;59146;43.850;25.948;2024-02-21T04:30:08;48.58;;;27.83;;
71343;SDS011;59146;43.850;25.948;2024-02-21T04:32:34;54.47;;;28.58;;
71343;SDS011;59146;43.850;25.948;2024-02-21T04:35:00;50.10;;;27.30;;
71343;SDS011;59146;43.850;25.948;2024-02-21T04:37:26;48.95;;;27.80;;
71343;SDS011;59146;43.850;25.948;2024-02-21T04:39:51;53.38;;;28.65;;
71343;SDS011;59146;43.850;25.948;2024-02-21T04:42:17;49.83;;;27.23;;
71343;SDS011;59146;43.850;25.948;2024-02-21T04:44:42;53.88;;;28.17;;
71343;SDS011;59146;43.850;25.948;2024-02-21T04:47:08;51.00;;;27.67;;
71343;SDS011;59146;43.850;25.948;2024-02-21T04:49:33;49.83;;;28.85;;
71343;SDS011;59146;43.850;25.948;2024-02-21T04:52:00;54.63;;;29.65;;
71343;SDS011;59146;43.850;25.948;2024-02-21T04:54:25;47.45;;;26.92;;
71343;SDS011;59146;43.850;25.948;2024-02-21T04:56:51;48.78;;;27.42;;
71343;SDS011;59146;43.850;25.948;2024-02-21T04:59:17;52.05;;;28.05;;
71343;SDS011;59146;43.850;25.948;2024-02-21T05:01:42;57.17;;;28.67;;
71343;SDS011;59146;43.850;25.948;2024-02-21T05:04:08;53.88;;;28.83;;
71343;SDS011;59146;43.850;25.948;2024-02-21T05:06:39;51.95;;;28.88;;
71343;SDS011;59146;43.850;25.948;2024-02-21T05:09:06;49.47;;;26.98;;
71343;SDS011;59146;43.850;25.948;2024-02-21T05:11:33;50.85;;;27.67;;
71343;SDS011;59146;43.850;25.948;2024-02-21T05:13:59;52.63;;;29.60;;
71343;SDS011;59146;43.850;25.948;2024-02-21T05:16:24;54.13;;;28.98;;
71343;SDS011;59146;43.850;25.948;2024-02-21T05:18:50;52.70;;;29.58;;
71343;SDS011;59146;43.850;25.948;2024-02-21T05:21:15;52.80;;;28.48;;
71343;SDS011;59146;43.850;25.948;2024-02-21T05:23:41;54.53;;;30.65;;
71343;SDS011;59146;43.850;25.948;2024-02-21T05:26:06;50.35;;;30.30;;
71343;SDS011;59146;43.850;25.948;2024-02-21T05:28:32;55.90;;;31.00;;
71343;SDS011;59146;43.850;25.948;2024-02-21T05:30:57;59.55;;;31.05;;
71343;SDS011;59146;43.850;25.948;2024-02-21T05:33:23;56.78;;;32.55;;
71343;SDS011;59146;43.850;25.948;2024-02-21T05:35:49;54.42;;;30.75;;
71343;SDS011;59146;43.850;25.948;2024-02-21T05:38:14;56.08;;;30.83;;
71343;SDS011;59146;43.850;25.948;2024-02-21T05:40:40;55.88;;;30.98;;
71343;SDS011;59146;43.850;25.948;2024-02-21T05:43:07;52.88;;;28.83;;
71343;SDS011;59146;43.850;25.948;2024-02-21T05:45:32;55.75;;;29.45;;
71343;SDS011;59146;43.850;25.948;2024-02-21T05:47:58;47.45;;;28.52;;
71343;SDS011;59146;43.850;25.948;2024-02-21T05:50:23;52.88;;;28.40;;
71343;SDS011;59146;43.850;25.948;2024-02-21T05:52:52;51.50;;;28.73;;
71343;SDS011;59146;43.850;25.948;2024-02-21T05:55:19;51.03;;;29.65;;
71343;SDS011;59146;43.850;25.948;2024-02-21T05:57:44;47.53;;;28.33;;
71343;SDS011;59146;43.850;25.948;2024-02-21T06:00:10;59.72;;;27.02;;
71343;SDS011;59146;43.850;25.948;2024-02-21T06:02:36;47.08;;;27.42;;
71343;SDS011;59146;43.850;25.948;2024-02-21T06:05:01;49.88;;;28.33;;
71343;SDS011;59146;43.850;25.948;2024-02-21T06:07:27;50.35;;;29.40;;
71343;SDS011;59146;43.850;25.948;2024-02-21T06:09:52;53.40;;;29.65;;
71343;SDS011;59146;43.850;25.948;2024-02-21T06:12:18;54.53;;;29.88;;
71343;SDS011;59146;43.850;25.948;2024-02-21T06:14:43;51.13;;;28.27;;
71343;SDS011;59146;43.850;25.948;2024-02-21T06:17:09;49.58;;;30.15;;
71343;SDS011;59146;43.850;25.948;2024-02-21T06:19:34;54.65;;;30.20;;
71343;SDS011;59146;43.850;25.948;2024-02-21T06:21:59;56.47;;;31.25;;
71343;SDS011;59146;43.850;25.948;2024-02-21T06:24:25;56.42;;;29.83;;
71343;SDS011;59146;43.850;25.948;2024-02-21T06:26:50;52.22;;;30.38;;
71343;SDS011;59146;43.850;25.948;2024-02-21T06:29:16;59.30;;;32.10;;
71343;SDS011;59146;43.850;25.948;2024-02-21T06:31:42;65.55;;;35.50;;
71343;SDS011;59146;43.850;25.948;2024-02-21T06:34:07;62.40;;;35.33;;
71343;SDS011;59146;43.850;25.948;2024-02-21T06:36:32;66.38;;;35.75;;
71343;SDS011;59146;43.850;25.948;2024-02-21T06:38:58;64.28;;;35.30;;
71343;SDS011;59146;43.850;25.948;2024-02-21T06:41:24;65.47;;;34.25;;
71343;SDS011;59146;43.850;25.948;2024-02-21T06:43:50;60.25;;;31.48;;
71343;SDS011;59146;43.850;25.948;2024-02-21T06:46:28;58.33;;;33.60;;
71343;SDS011;59146;43.850;25.948;2024-02-21T06:48:54;65.53;;;34.20;;
71343;SDS011;59146;43.850;25.948;2024-02-21T06:51:23;67.78;;;37.30;;
71343;SDS011;59146;43.850;25.948;2024-02-21T06:53:49;66.68;;;37.40;;
71343;SDS011;59146;43.850;25.948;2024-02-21T06:56:15;82.55;;;48.95;;
71343;SDS011;59146;43.850;25.948;2024-02-21T06:58:41;68.28;;;38.38;;
71343;SDS011;59146;43.850;25.948;2024-02-21T07:01:06;68.30;;;39.00;;
71343;SDS011;59146;43.850;25.948;2024-02-21T07:03:32;62.67;;;36.55;;
71343;SDS011;59146;43.850;25.948;2024-02-21T07:05:58;72.25;;;38.35;;
71343;SDS011;59146;43.850;25.948;2024-02-21T07:08:23;72.22;;;38.80;;
71343;SDS011;59146;43.850;25.948;2024-02-21T07:10:49;77.30;;;39.00;;
71343;SDS011;59146;43.850;25.948;2024-02-21T07:13:14;68.40;;;39.00;;
71343;SDS011;59146;43.850;25.948;2024-02-21T07:15:41;66.93;;;38.30;;
71343;SDS011;59146;43.850;25.948;2024-02-21T07:18:06;75.80;;;42.60;;
71343;SDS011;59146;43.850;25.948;2024-02-21T07:20:32;82.38;;;43.25;;
71343;SDS011;59146;43.850;25.948;2024-02-21T07:23:02;77.53;;;46.33;;
71343;SDS011;59146;43.850;25.948;2024-02-21T07:25:28;83.57;;;45.13;;
71343;SDS011;59146;43.850;25.948;2024-02-21T07:27:54;90.40;;;46.38;;
71343;SDS011;59146;43.850;25.948;2024-02-21T07:30:19;88.68;;;46.28;;
71343;SDS011;59146;43.850;25.948;2024-02-21T07:32:45;87.70;;;48.97;;
71343;SDS011;59146;43.850;25.948;2024-02-21T07:35:10;101.03;;;52.25;;
71343;SDS011;59146;43.850;25.948;2024-02-21T07:37:37;95.43;;;52.20;;
71343;SDS011;59146;43.850;25.948;2024-02-21T07:40:06;98.40;;;51.60;;
71343;SDS011;59146;43.850;25.948;2024-02-21T07:42:37;85.72;;;51.47;;
71343;SDS011;59146;43.850;25.948;2024-02-21T07:45:02;98.05;;;54.80;;
71343;SDS011;59146;43.850;25.948;2024-02-21T07:47:29;111.95;;;61.28;;
71343;SDS011;59146;43.850;25.948;2024-02-21T07:49:54;103.15;;;60.58;;
71343;SDS011;59146;43.850;25.948;2024-02-21T07:52:20;97.85;;;55.38;;
71343;SDS011;59146;43.850;25.948;2024-02-21T07:54:45;69.00;;;42.28;;
71343;SDS011;59146;43.850;25.948;2024-02-21T07:57:11;65.80;;;38.53;;
71343;SDS011;59146;43.850;25.948;2024-02-21T07:59:37;81.40;;;50.50;;
71343;SDS011;59146;43.850;25.948;2024-02-21T08:02:02;64.47;;;37.13;;
71343;SDS011;59146;43.850;25.948;2024-02-21T08:04:31;53.67;;;32.53;;
71343;SDS011;59146;43.850;25.948;2024-02-21T08:06:57;65.40;;;32.58;;
71343;SDS011;59146;43.850;25.948;2024-02-21T08:09:26;57.83;;;31.60;;
71343;SDS011;59146;43.850;25.948;2024-02-21T08:11:52;57.13;;;32.28;;
71343;SDS011;59146;43.850;25.948;2024-02-21T08:14:19;50.38;;;30.30;;
71343;SDS011;59146;43.850;25.948;2024-02-21T08:16:44;52.67;;;30.88;;
71343;SDS011;59146;43.850;25.948;2024-02-21T08:19:10;51.45;;;30.02;;
71343;SDS011;59146;43.850;25.948;2024-02-21T08:21:36;50.92;;;31.17;;
71343;SDS011;59146;43.850;25.948;2024-02-21T08:24:01;60.15;;;31.58;;
71343;SDS011;59146;43.850;25.948;2024-02-21T08:26:30;53.30;;;31.88;;
71343;SDS011;59146;43.850;25.948;2024-02-21T08:28:56;54.50;;;32.95;;
71343;SDS011;59146;43.850;25.948;2024-02-21T08:31:26;55.50;;;32.35;;
71343;SDS011;59146;43.850;25.948;2024-02-21T08:33:59;49.75;;;32.17;;
71343;SDS011;59146;43.850;25.948;2024-02-21T08:36:29;48.00;;;31.20;;
71343;SDS011;59146;43.850;25.948;2024-02-21T08:38:55;51.30;;;29.35;;
71343;SDS011;59146;43.850;25.948;2024-02-21T08:41:21;55.13;;;29.38;;
71343;SDS011;59146;43.850;25.948;2024-02-21T08:43:54;46.35;;;28.27;;
71343;SDS011;59146;43.850;25.948;2024-02-21T08:46:20;47.58;;;27.85;;
71343;SDS011;59146;43.850;25.948;2024-02-21T08:48:46;45.20;;;26.15;;
71343;SDS011;59146;43.850;25.948;2024-02-21T08:51:13;53.30;;;31.15;;
71343;SDS011;59146;43.850;25.948;2024-02-21T08:53:39;55.15;;;29.65;;
71343;SDS011;59146;43.850;25.948;2024-02-21T08:56:05;40.10;;;27.20;;
71343;SDS011;59146;43.850;25.948;2024-02-21T08:58:32;45.17;;;25.17;;
71343;SDS011;59146;43.850;25.948;2024-02-21T09:00:58;46.92;;;27.45;;
71343;SDS011;59146;43.850;25.948;2024-02-21T09:03:24;73.50;;;38.85;;
71343;SDS011;59146;43.850;25.948;2024-02-21T09:05:50;65.20;;;30.02;;
71343;SDS011;59146;43.850;25.948;2024-02-21T09:08:18;53.88;;;28.17;;
71343;SDS011;59146;43.850;25.948;2024-02-21T09:10:44;50.80;;;27.05;;
71343;SDS011;59146;43.850;25.948;2024-02-21T09:13:10;64.70;;;26.90;;
71343;SDS011;59146;43.850;25.948;2024-02-21T09:15:35;52.30;;;28.17;;
71343;SDS011;59146;43.850;25.948;2024-02-21T09:18:04;53.58;;;26.38;;
71343;SDS011;59146;43.850;25.948;2024-02-21T09:20:29;54.88;;;28.90;;
71343;SDS011;59146;43.850;25.948;2024-02-21T09:23:04;50.38;;;26.25;;
71343;SDS011;59146;43.850;25.948;2024-02-21T09:25:29;49.22;;;26.98;;
71343;SDS011;59146;43.850;25.948;2024-02-21T09:27:56;49.90;;;26.80;;
71343;SDS011;59146;43.850;25.948;2024-02-21T09:30:23;64.95;;;30.23;;
71343;SDS011;59146;43.850;25.948;2024-02-21T09:32:49;52.00;;;28.15;;
71343;SDS011;59146;43.850;25.948;2024-02-21T09:35:15;55.17;;;29.63;;
71343;SDS011;59146;43.850;25.948;2024-02-21T09:37:40;61.80;;;31.80;;
71343;SDS011;59146;43.850;25.948;2024-02-21T09:40:06;55.58;;;29.05;;
71343;SDS011;59146;43.850;25.948;2024-02-21T09:45:07;53.65;;;28.58;;
71343;SDS011;59146;43.850;25.948;2024-02-21T09:50:06;63.00;;;29.55;;
71343;SDS011;59146;43.850;25.948;2024-02-21T09:52:32;50.42;;;27.75;;
71343;SDS011;59146;43.850;25.948;2024-02-21T09:55:00;46.40;;;26.20;;
71343;SDS011;59146;43.850;25.948;2024-02-21T09:57:26;38.60;;;23.45;;
71343;SDS011;59146;43.850;25.948;2024-02-21T09:59:53;41.20;;;24.75;;
71343;SDS011;59146;43.850;25.948;2024-02-21T10:02:21;39.50;;;21.45;;
71343;SDS011;59146;43.850;25.948;2024-02-21T10:04:47;33.38;;;21.08;;
71343;SDS011;59146;43.850;25.948;2024-02-21T10:07:12;34.15;;;21.02;;
71343;SDS011;59146;43.850;25.948;2024-02-21T10:09:38;36.80;;;21.20;;
71343;SDS011;59146;43.850;25.948;2024-02-21T10:12:11;32.30;;;20.77;;
71343;SDS011;59146;43.850;25.948;2024-02-21T10:14:37;36.15;;;20.38;;
71343;SDS011;59146;43.850;25.948;2024-02-21T10:17:03;34.67;;;20.80;;
71343;SDS011;59146;43.850;25.948;2024-02-21T10:19:34;39.33;;;21.15;;
71343;SDS011;59146;43.850;25.948;2024-02-21T10:22:04;37.05;;;22.50;;
71343;SDS011;59146;43.850;25.948;2024-02-21T10:24:32;38.60;;;23.15;;
71343;SDS011;59146;43.850;25.948;2024-02-21T10:26:59;31.02;;;21.08;;
71343;SDS011;59146;43.850;25.948;2024-02-21T10:29:29;33.20;;;20.70;;
71343;SDS011;59146;43.850;25.948;2024-02-21T10:32:04;35.75;;;21.30;;
71343;SDS011;59146;43.850;25.948;2024-02-21T10:34:34;33.42;;;21.48;;
71343;SDS011;59146;43.850;25.948;2024-02-21T10:37:07;35.40;;;21.83;;
71343;SDS011;59146;43.850;25.948;2024-02-21T10:39:34;38.05;;;21.65;;
71343;SDS011;59146;43.850;25.948;2024-02-21T10:42:01;45.75;;;24.15;;
71343;SDS011;59146;43.850;25.948;2024-02-21T10:44:32;40.83;;;25.05;;
71343;SDS011;59146;43.850;25.948;2024-02-21T10:47:01;40.83;;;23.35;;
71343;SDS011;59146;43.850;25.948;2024-02-21T10:49:32;34.08;;;22.52;;
71343;SDS011;59146;43.850;25.948;2024-02-21T10:52:14;42.53;;;25.42;;
71343;SDS011;59146;43.850;25.948;2024-02-21T10:57:18;50.08;;;30.25;;
71343;SDS011;59146;43.850;25.948;2024-02-21T10:59:46;59.97;;;30.80;;
71343;SDS011;59146;43.850;25.948;2024-02-21T11:02:14;53.47;;;33.28;;
71343;SDS011;59146;43.850;25.948;2024-02-21T11:04:40;47.53;;;30.05;;
71343;SDS011;59146;43.850;25.948;2024-02-21T11:07:07;43.47;;;26.70;;
71343;SDS011;59146;43.850;25.948;2024-02-21T11:09:34;48.45;;;28.60;;
71343;SDS011;59146;43.850;25.948;2024-02-21T11:12:03;41.20;;;25.38;;
71343;SDS011;59146;43.850;25.948;2024-02-21T11:14:30;51.97;;;26.48;;
71343;SDS011;59146;43.850;25.948;2024-02-21T11:17:14;70.22;;;27.40;;
71343;SDS011;59146;43.850;25.948;2024-02-21T11:19:43;82.95;;;27.48;;
71343;SDS011;59146;43.850;25.948;2024-02-21T11:22:18;65.25;;;28.08;;
71343;SDS011;59146;43.850;25.948;2024-02-21T11:24:48;57.60;;;28.90;;
71343;SDS011;59146;43.850;25.948;2024-02-21T11:29:46;55.83;;;30.15;;
71343;SDS011;59146;43.850;25.948;2024-02-21T11:32:20;48.58;;;29.27;;
71343;SDS011;59146;43.850;25.948;2024-02-21T11:34:56;58.15;;;30.63;;
71343;SDS011;59146;43.850;25.948;2024-02-21T11:37:23;52.58;;;29.88;;
71343;SDS011;59146;43.850;25.948;2024-02-21T11:39:51;54.50;;;31.50;;
71343;SDS011;59146;43.850;25.948;2024-02-21T11:42:18;74.25;;;42.60;;
71343;SDS011;59146;43.850;25.948;2024-02-21T11:44:43;52.55;;;30.20;;
71343;SDS011;59146;43.850;25.948;2024-02-21T11:47:09;47.90;;;27.73;;
71343;SDS011;59146;43.850;25.948;2024-02-21T11:49:38;53.78;;;29.83;;
71343;SDS011;59146;43.850;25.948;2024-02-21T11:52:08;59.40;;;32.03;;
71343;SDS011;59146;43.850;25.948;2024-02-21T11:54:34;79.07;;;34.30;;
71343;SDS011;59146;43.850;25.948;2024-02-21T11:57:00;82.47;;;39.97;;
71343;SDS011;59146;43.850;25.948;2024-02-21T11:59:30;81.65;;;40.10;;
71343;SDS011;59146;43.850;25.948;2024-02-21T12:01:56;71.22;;;34.63;;
71343;SDS011;59146;43.850;25.948;2024-02-21T12:04:24;47.20;;;28.95;;
71343;SDS011;59146;43.850;25.948;2024-02-21T12:06:53;40.55;;;24.63;;
71343;SDS011;59146;43.850;25.948;2024-02-21T12:09:19;43.17;;;22.85;;
71343;SDS011;59146;43.850;25.948;2024-02-21T12:11:45;40.10;;;20.92;;
71343;SDS011;59146;43.850;25.948;2024-02-21T12:14:15;36.95;;;19.88;;
71343;SDS011;59146;43.850;25.948;2024-02-21T12:16:42;28.17;;;19.48;;
71343;SDS011;59146;43.850;25.948;2024-02-21T12:19:12;35.83;;;21.63;;
71343;SDS011;59146;43.850;25.948;2024-02-21T12:21:38;35.10;;;18.98;;
71343;SDS011;59146;43.850;25.948;2024-02-21T12:24:14;41.03;;;20.20;;
71343;SDS011;59146;43.850;25.948;2024-02-21T12:26:40;32.63;;;19.35;;
71343;SDS011;59146;43.850;25.948;2024-02-21T12:29:07;31.83;;;19.05;;
71343;SDS011;59146;43.850;25.948;2024-02-21T12:31:39;39.40;;;20.65;;
71343;SDS011;59146;43.850;25.948;2024-02-21T12:34:05;33.60;;;19.35;;
71343;SDS011;59146;43.850;25.948;2024-02-21T12:36:31;38.03;;;19.70;;
71343;SDS011;59146;43.850;25.948;2024-02-21T12:38:58;40.35;;;19.70;;
71343;SDS011;59146;43.850;25.948;2024-02-21T12:41:31;37.33;;;19.98;;
71343;SDS011;59146;43.850;25.948;2024-02-21T12:43:58;36.10;;;19.58;;
71343;SDS011;59146;43.850;25.948;2024-02-21T12:46:23;61.97;;;21.27;;
71343;SDS011;59146;43.850;25.948;2024-02-21T12:48:49;39.63;;;21.65;;
71343;SDS011;59146;43.850;25.948;2024-02-21T12:51:15;39.08;;;21.63;;
71343;SDS011;59146;43.850;25.948;2024-02-21T12:53:46;28.17;;;18.13;;
71343;SDS011;59146;43.850;25.948;2024-02-21T12:56:15;35.55;;;23.70;;
71343;SDS011;59146;43.850;25.948;2024-02-21T12:58:45;45.88;;;24.58;;
71343;SDS011;59146;43.850;25.948;2024-02-21T13:01:10;42.50;;;23.73;;
71343;SDS011;59146;43.850;25.948;2024-02-21T13:03:36;40.40;;;22.02;;
71343;SDS011;59146;43.850;25.948;2024-02-21T13:06:03;40.60;;;21.35;;
71343;SDS011;59146;43.850;25.948;2024-02-21T13:08:30;43.17;;;20.67;;
71343;SDS011;59146;43.850;25.948;2024-02-21T13:10:56;34.65;;;19.17;;
71343;SDS011;59146;43.850;25.948;2024-02-21T13:13:22;41.17;;;20.98;;
71343;SDS011;59146;43.850;25.948;2024-02-21T13:15:47;43.13;;;19.48;;
71343;SDS011;59146;43.850;25.948;2024-02-21T13:18:13;43.55;;;20.98;;
71343;SDS011;59146;43.850;25.948;2024-02-21T13:20:38;39.88;;;19.60;;
71343;SDS011;59146;43.850;25.948;2024-02-21T13:23:04;29.83;;;20.90;;
71343;SDS011;59146;43.850;25.948;2024-02-21T13:25:29;37.55;;;19.27;;
71343;SDS011;59146;43.850;25.948;2024-02-21T13:27:55;44.03;;;19.98;;
71343;SDS011;59146;43.850;25.948;2024-02-21T13:30:21;38.42;;;19.75;;
71343;SDS011;59146;43.850;25.948;2024-02-21T13:32:48;42.60;;;20.80;;
71343;SDS011;59146;43.850;25.948;2024-02-21T13:35:14;51.08;;;22.90;;
71343;SDS011;59146;43.850;25.948;2024-02-21T13:37:42;51.97;;;21.52;;
71343;SDS011;59146;43.850;25.948;2024-02-21T13:40:08;51.28;;;20.60;;
71343;SDS011;59146;43.850;25.948;2024-02-21T13:42:35;41.28;;;20.15;;
71343;SDS011;59146;43.850;25.948;2024-02-21T13:45:01;44.05;;;21.00;;
71343;SDS011;59146;43.850;25.948;2024-02-21T13:47:30;49.15;;;21.13;;
71343;SDS011;59146;43.850;25.948;2024-02-21T13:49:56;53.30;;;21.83;;
71343;SDS011;59146;43.850;25.948;2024-02-21T13:52:22;42.08;;;20.85;;
71343;SDS011;59146;43.850;25.948;2024-02-21T13:54:51;38.60;;;20.17;;
71343;SDS011;59146;43.850;25.948;2024-02-21T13:57:17;36.80;;;20.33;;
71343;SDS011;59146;43.850;25.948;2024-02-21T13:59:43;38.50;;;22.17;;
71343;SDS011;59146;43.850;25.948;2024-02-21T14:02:09;39.67;;;22.00;;
71343;SDS011;59146;43.850;25.948;2024-02-21T14:04:35;48.33;;;21.20;;
71343;SDS011;59146;43.850;25.948;2024-02-21T14:07:00;38.10;;;19.92;;
71343;SDS011;59146;43.850;25.948;2024-02-21T14:09:26;46.95;;;20.83;;
71343;SDS011;59146;43.850;25.948;2024-02-21T14:11:52;53.47;;;21.17;;
71343;SDS011;59146;43.850;25.948;2024-02-21T14:14:21;42.70;;;19.92;;
71343;SDS011;59146;43.850;25.948;2024-02-21T14:16:47;45.30;;;20.60;;